N0ERG Weather Reports


Display with metric or nautical units.
time (UTC)temp
F
wind
direction
speed
MPH
gust
MPH
rain 1hr
in
rain 24hr
in
rain mn
in
humidity
%
barometer
mb
20220516222005 74 166 3.0 17.0 0.00 0.00 0.00 26 1001.0
20220516221004 75 154 5.0 17.0 0.00 0.00 0.00 25 1001.3
20220516220004 76 189 3.0 15.0 0.00 0.00 0.00 23 1001.4
20220516215004 77 205 3.0 12.0 0.00 0.00 0.00 21 1001.2
20220516214004 78 211 6.0 16.0 0.00 0.00 0.00 19 1000.9
20220516213004 78 218 3.0 12.0 0.00 0.00 0.00 19 1000.6
20220516212004 78 244 5.0 13.0 0.00 0.00 0.00 19 1000.4
20220516211004 78 302 5.0 14.0 0.00 0.00 0.00 18 1000.3
20220516210005 78 316 5.0 17.0 0.00 0.00 0.00 19 1000.5
20220516205004 79 306 7.0 16.0 0.00 0.00 0.00 18 1000.5
20220516204005 80 251 3.0 8.0 0.00 0.00 0.00 17 1000.4
20220516203004 81 9 1.0 3.0 0.00 0.00 0.00 15 1000.3
20220516202004 82 304 5.0 9.0 0.00 0.00 0.00 16 1000.3
20220516201005 82 312 3.0 7.0 0.00 0.00 0.00 16 1000.2
20220516200005 83 352 3.0 9.0 0.00 0.00 0.00 16 1000.1
20220516195004 82 22 2.0 10.0 0.00 0.00 0.00 18 1000.2
20220516194004 82 324 3.0 10.0 0.00 0.00 0.00 18 1000.2
20220516193006 82 327 1.0 3.0 0.00 0.00 0.00 18 1000.4
20220516192004 82 64 2.0 3.0 0.00 0.00 0.00 19 1000.3
20220516191005 83 68 2.0 6.0 0.00 0.00 0.00 19 1000.3
20220516190004 83 67 3.0 10.0 0.00 0.00 0.00 22 1000.4
20220516185004 83 71 3.0 7.0 0.00 0.00 0.00 24 1000.5
20220516184004 82 72 1.0 9.0 0.00 0.00 0.00 23 1000.8
20220516183003 82 75 2.0 3.0 0.00 0.00 0.00 27 1001.0
20220516182004 82 70 2.0 8.0 0.00 0.00 0.00 28 1001.2
20220516181003 83 110 2.0 8.0 0.00 0.00 0.00 26 1001.5
20220516180005 83 74 5.0 8.0 0.00 0.00 0.00 22 1001.8
20220516175004 81 68 1.0 3.0 0.00 0.00 0.00 24 1002.0
20220516174005 81 78 2.0 3.0 0.00 0.00 0.00 24 1002.2
20220516173006 81 62 2.0 3.0 0.00 0.00 0.00 26 1002.5
20220516172005 79 315 1.0 3.0 0.00 0.00 0.00 22 1002.7
20220516171006 79 191 1.0 3.0 0.00 0.00 0.00 25 1002.8
20220516170005 78 313 0.0 3.0 0.00 0.00 0.00 26 1003.0
20220516165007 77 274 2.0 5.0 0.00 0.00 0.00 24 1003.2
20220516164006 76 285 1.0 3.0 0.00 0.00 0.00 28 1003.4
20220516163005 75 85 1.0 3.0 0.00 0.00 0.00 32 1003.6
20220516162005 73 272 1.0 3.0 0.00 0.00 0.00 32 1003.8
20220516161005 71 218 1.0 5.0 0.00 0.00 0.00 34 1003.9
20220516160006 70 140 0.0 5.0 0.00 0.00 0.00 38 1004.1
20220516155006 68 212 1.0 3.0 0.00 0.00 0.00 39 1004.4
20220516154005 67 254 1.0 6.0 0.00 0.00 0.00 41 1004.7
20220516153006 65 209 1.0 3.0 0.00 0.00 0.00 43 1004.7
20220516152005 65 233 1.0 3.0 0.00 0.00 0.00 44 1004.8
20220516151005 64 290 1.0 2.0 0.00 0.00 0.00 45 1004.9
20220516150005 62 35 1.0 2.0 0.00 0.00 0.00 51 1005.1
20220516145005 61 286 0.0 1.0 0.00 0.00 0.00 50 1005.1
20220516144005 60 286 0.0 1.0 0.00 0.00 0.00 51 1005.2
20220516143005 59 286 1.0 2.0 0.00 0.00 0.00 54 1005.2
20220516142005 58 272 0.0 3.0 0.00 0.00 0.00 55 1005.2
20220516141005 56 159 0.0 2.0 0.00 0.00 0.00 59 1005.3
20220516140005 55 159 0.0 1.0 0.00 0.00 0.00 62 1005.3
20220516135005 55 159 1.0 2.0 0.00 0.00 0.00 63 1005.5
20220516134005 54 159 0.0 1.0 0.00 0.00 0.00 66 1005.6
20220516133006 53 159 0.0 2.0 0.00 0.00 0.00 68 1005.7
20220516132006 50 159 0.0 1.0 0.00 0.00 0.00 75 1005.6
20220516131005 47 159 0.0 1.0 0.00 0.00 0.00 80 1005.7
20220516130005 46 159 0.0 0.0 0.00 0.00 0.00 85 1005.8
20220516125005 45 159 0.0 1.0 0.00 0.00 0.00 85 1005.8
20220516124006 44 159 0.0 1.0 0.00 0.00 0.00 84 1005.9
20220516123005 43 159 0.0 1.0 0.00 0.00 0.00 84 1005.8
20220516122005 43 159 0.0 0.0 0.00 0.00 0.00 84 1005.8
20220516121006 43 159 0.0 2.0 0.00 0.00 0.00 83 1005.8
20220516120005 43 159 1.0 2.0 0.00 0.00 0.00 81 1005.9
20220516115006 43 159 1.0 2.0 0.00 0.00 0.00 80 1005.7
20220516114005 43 159 1.0 1.0 0.00 0.00 0.00 80 1005.7
20220516113005 44 159 1.0 1.0 0.00 0.00 0.00 78 1005.7
20220516112005 44 159 1.0 1.0 0.00 0.00 0.00 78 1005.7
20220516111006 44 159 0.0 0.0 0.00 0.00 0.00 79 1005.7
20220516110005 45 159 0.0 0.0 0.00 0.00 0.00 78 1005.7
20220516105005 45 159 0.0 0.0 0.00 0.00 0.00 78 1005.8
20220516104005 45 159 0.0 0.0 0.00 0.00 0.00 77 1005.9
20220516103004 45 159 0.0 2.0 0.00 0.00 0.00 77 1005.7
20220516102005 46 159 0.0 1.0 0.00 0.00 0.00 77 1005.7
20220516101006 46 159 0.0 0.0 0.00 0.00 0.00 77 1005.7
20220516100005 46 159 0.0 1.0 0.00 0.00 0.00 77 1005.8
20220516095006 46 159 0.0 2.0 0.00 0.00 0.00 76 1005.7
20220516094005 46 159 2.0 2.0 0.00 0.00 0.00 74 1005.7
20220516093005 47 159 1.0 2.0 0.00 0.00 0.00 74 1005.7
20220516092005 47 159 0.0 1.0 0.00 0.00 0.00 73 1005.8
20220516091005 48 159 0.0 2.0 0.00 0.00 0.00 72 1005.9
20220516090005 48 159 1.0 2.0 0.00 0.00 0.00 71 1005.9
20220516085006 49 242 0.0 1.0 0.00 0.00 0.00 69 1005.9
20220516084005 49 242 0.0 1.0 0.00 0.00 0.00 68 1006.0
20220516083005 50 242 0.0 1.0 0.00 0.00 0.00 68 1006.0
20220516082005 50 242 0.0 1.0 0.00 0.00 0.00 66 1006.2
20220516081005 50 242 0.0 2.0 0.00 0.00 0.00 65 1006.4
20220516080005 50 213 1.0 3.0 0.00 0.00 0.00 65 1006.5
20220516075005 50 86 0.0 1.0 0.00 0.00 0.00 65 1006.6
20220516074006 50 86 1.0 3.0 0.00 0.00 0.00 65 1006.6
20220516073005 50 86 2.0 3.0 0.00 0.00 0.00 65 1006.8
20220516072004 51 162 0.0 2.0 0.00 0.00 0.00 62 1007.0
20220516071005 51 162 0.0 1.0 0.00 0.00 0.00 61 1007.2
20220516070005 52 162 0.0 1.0 0.00 0.00 0.00 61 1007.4
20220516065005 52 162 0.0 0.0 0.00 0.00 0.00 59 1007.4
20220516064005 53 162 0.0 0.0 0.00 0.00 0.00 57 1007.4
20220516063004 54 162 0.0 2.0 0.00 0.00 0.00 56 1007.6
20220516062006 54 182 0.0 1.0 0.00 0.00 0.00 55 1007.8
20220516061004 55 182 0.0 1.0 0.00 0.00 0.00 53 1007.8
20220516060005 56 182 0.0 1.0 0.00 0.00 0.00 52 1007.8
20220516055004 57 182 0.0 1.0 0.00 0.00 0.00 51 1007.8
20220516054006 57 182 0.0 1.0 0.00 0.00 0.00 50 1008.0
20220516053005 58 182 0.0 1.0 0.00 0.00 0.00 48 1008.1
20220516052006 58 182 0.0 1.0 0.00 0.00 0.00 47 1008.2
20220516051005 59 182 0.0 2.0 0.00 0.00 0.00 46 1008.3
20220516050004 60 182 0.0 2.0 0.00 0.00 0.00 44 1008.3
20220516045005 61 215 0.0 2.0 0.00 0.00 0.00 41 1008.2
20220516044006 62 215 1.0 2.0 0.00 0.00 0.00 40 1008.2
20220516043005 63 213 0.0 3.0 0.00 0.00 0.00 38 1008.1
20220516042005 63 226 2.0 3.0 0.00 0.00 0.00 38 1008.0
20220516041005 63 256 1.0 3.0 0.00 0.00 0.00 39 1007.7
20220516040005 63 288 1.0 2.0 0.00 0.00 0.00 39 1007.6
20220516035005 63 309 0.0 6.0 0.00 0.00 0.00 40 1007.4
20220516034005 62 313 4.0 8.0 0.00 0.00 0.00 41 1007.3
20220516033006 62 66 1.0 3.0 0.00 0.00 0.00 41 1007.0
20220516032005 63 85 2.0 5.0 0.00 0.00 0.00 40 1006.9
20220516031004 64 49 1.0 2.0 0.00 0.00 0.00 39 1006.9
20220516030005 64 46 0.0 3.0 0.00 0.00 0.00 37 1006.7
20220516025004 65 57 1.0 3.0 0.00 0.00 0.00 36 1006.6
20220516024005 66 51 0.0 3.0 0.00 0.00 0.00 36 1006.6
20220516023005 67 41 2.0 5.0 0.00 0.00 0.00 35 1006.5
20220516022006 68 52 1.0 5.0 0.00 0.00 0.00 35 1006.5
20220516021005 69 52 2.0 5.0 0.00 0.00 0.00 33 1006.4
20220516020004 70 79 2.0 3.0 0.00 0.00 0.00 32 1006.4
20220516015004 71 23 0.0 3.0 0.00 0.00 0.00 31 1006.3
20220516014004 72 81 3.0 8.0 0.00 0.00 0.00 29 1006.1
20220516013004 73 79 2.0 7.0 0.00 0.00 0.00 31 1006.0
20220516012005 73 64 3.0 7.0 0.00 0.00 0.00 29 1005.9
20220516011005 73 69 2.0 9.0 0.00 0.00 0.00 30 1006.0
20220516010005 73 52 0.0 5.0 0.00 0.00 0.00 30 1006.1
20220516005004 73 36 1.0 12.0 0.00 0.00 0.00 29 1006.0
20220516004005 75 55 4.0 12.0 0.00 0.00 0.00 28 1005.9
20220516003004 76 72 3.0 10.0 0.00 0.00 0.00 27 1005.8
20220516002004 78 69 4.0 12.0 0.00 0.00 0.00 26 1005.9
20220516001004 78 59 3.0 8.0 0.00 0.00 0.00 28 1006.0
20220516000007 78 88 4.0 10.0 0.00 0.00 0.00 26 1005.9
20220515235004 78 46 3.0 10.0 0.00 0.00 0.00 27 1005.9
20220515234006 79 59 3.0 9.0 0.00 0.00 0.00 24 1005.8
20220515233005 80 48 3.0 10.0 0.00 0.00 0.00 25 1005.7
20220515232005 79 78 3.0 10.0 0.00 0.00 0.00 26 1005.9
20220515231004 79 85 3.0 8.0 0.00 0.00 0.00 25 1005.9
20220515230005 80 71 5.0 13.0 0.00 0.00 0.00 23 1006.0
20220515225004 81 41 2.0 9.0 0.00 0.00 0.00 25 1006.1
20220515224004 81 22 3.0 12.0 0.00 0.00 0.00 25 1006.0
20220515223004 81 67 3.0 10.0 0.00 0.00 0.00 26 1006.1